Elk River, Idaho
Current Conditions -  °F | °C
As of 12:53 PM on Sunday 21 Dec 2014 (Local Time) from KPUW Reporting Station
Few Clouds Few Clouds  
Wind Chill: 40°   Ceiling: Unl
Heat Index: 48°   Visibility: 10mi
Dew Point: 38°   Wind: 23mph
Humidity: 68%   Direction: 250°WSW
Pressure: 29.85"   Gusts: 30mph
Location:  46.78°N, 116.18°W
Report Text: KPUW 212053Z AUTO 25020G26KT 10SM FEW028 09/03 A2985 RMK AO2 PK WND 26028/2000 SLP115 T00890033 51013
Loading
Personal Weather Stations






























Interactive Weather Map New forecast layout! Learn more

10-Day Weather Forecast

Advertisements
Track Severe Weather on mobile